Airfield :
LOGIN :

Register | Disclaimer

   EN    FR    IT 

 










Legend :    VFR   Marginal VFR   IFR   Intensive IFR   Very Intensive IFR
Visi :
Ceiling :
>= 8 km
>= 3000ft
5 to 8 km
1000 to 3000 ft
1500m to 5 km
500 to 1000 ft
800 to 1500m
200 to 500 ft
< 800m
< 200 ft
Symbols :   Thunderstorms  Fog  Heavy snow  Heavy precipitations  Wind > 20 kt
SIGMETs :     Misc.  Thunderstorms  Icing  Turbulence  Mountain Waves  Volcanic Ashes







- Airport Elevation : 479 ft
- IATA code : DOL
- Download approach charts


LFRG - Deauville

CURRENT METAR :
  • 241230Z AUTO 02009KT 340V060 CAVOK 22/09 Q1025 NOSIG

EXPIRED METARs :
  • 241200Z AUTO 04009KT 360V070 CAVOK 21/10 Q1025 NOSIG
  • 241130Z AUTO 01008KT 330V040 CAVOK 21/11 Q1025 NOSIG
  • 241100Z AUTO 02008KT 340V070 CAVOK 21/10 Q1025 NOSIG
  • 241030Z AUTO 02007KT 350V060 CAVOK 21/10 Q1025 NOSIG
  • 241000Z AUTO 02008KT 340V050 CAVOK 20/11 Q1025 NOSIG

TAF TAF LFRG
Valid from the 24 at 12:00 until the 24 at 21:00 UTC


241100Z 2412/2421 34010KT CAVOK
ATIS : +33 2 31 65 65 36
No reported NOTAMs for that airfield.



MET'MAP, your aeronautical weather chart ! - Copyright ORBIFLY December 2007 - Disclaimer

ORBIFLY MET'MAP TEAM :

Programming & Development : Alexandra Zaïnal
Concept & Development : Baudouin d'Aumeries
Co-Development & Prog : Marc-Olivier Méhu
Technical & hardware support : Manuel Goepfert

Contact : metmap@orbifly.com




SOURCES & CREDITS :

   NOAA